sensor_id;sensor_type;location;lat;lon;timestamp;temperature;humidity
12957;DHT22;6543;48.836;10.092;2022-09-06T00:01:37;17.10;99.90
12957;DHT22;6543;48.836;10.092;2022-09-06T00:04:06;17.20;99.90
12957;DHT22;6543;48.836;10.092;2022-09-06T00:06:32;17.30;99.90
12957;DHT22;6543;48.836;10.092;2022-09-06T00:08:59;17.30;99.90
12957;DHT22;6543;48.836;10.092;2022-09-06T00:11:27;17.30;99.90
12957;DHT22;6543;48.836;10.092;2022-09-06T00:13:54;17.30;99.90
12957;DHT22;6543;48.836;10.092;2022-09-06T00:16:22;17.30;99.90
12957;DHT22;6543;48.836;10.092;2022-09-06T00:18:52;17.30;99.90
12957;DHT22;6543;48.836;10.092;2022-09-06T00:21:22;17.30;99.90
12957;DHT22;6543;48.836;10.092;2022-09-06T00:23:49;17.20;99.90
12957;DHT22;6543;48.836;10.092;2022-09-06T00:26:16;17.20;99.90
12957;DHT22;6543;48.836;10.092;2022-09-06T00:28:43;17.00;99.90
12957;DHT22;6543;48.836;10.092;2022-09-06T00:31:12;17.00;99.90
12957;DHT22;6543;48.836;10.092;2022-09-06T00:33:39;16.90;99.90
12957;DHT22;6543;48.836;10.092;2022-09-06T00:36:06;16.80;99.90
12957;DHT22;6543;48.836;10.092;2022-09-06T00:38:34;16.60;99.90
12957;DHT22;6543;48.836;10.092;2022-09-06T00:41:01;16.60;99.90
12957;DHT22;6543;48.836;10.092;2022-09-06T00:43:28;16.60;99.90
12957;DHT22;6543;48.836;10.092;2022-09-06T00:45:55;16.70;99.90
12957;DHT22;6543;48.836;10.092;2022-09-06T00:48:22;16.60;99.90
12957;DHT22;6543;48.836;10.092;2022-09-06T00:50:52;16.60;99.90
12957;DHT22;6543;48.836;10.092;2022-09-06T00:53:21;16.60;99.90
12957;DHT22;6543;48.836;10.092;2022-09-06T00:55:50;16.70;99.90
12957;DHT22;6543;48.836;10.092;2022-09-06T00:58:17;16.70;99.90
12957;DHT22;6543;48.836;10.092;2022-09-06T01:00:44;16.70;99.90
12957;DHT22;6543;48.836;10.092;2022-09-06T01:03:11;16.70;99.90
12957;DHT22;6543;48.836;10.092;2022-09-06T01:05:48;16.60;99.90
12957;DHT22;6543;48.836;10.092;2022-09-06T01:08:23;16.60;99.90
12957;DHT22;6543;48.836;10.092;2022-09-06T01:11:40;16.60;99.90
12957;DHT22;6543;48.836;10.092;2022-09-06T01:14:17;16.60;99.90
12957;DHT22;6543;48.836;10.092;2022-09-06T01:16:51;16.60;99.90
12957;DHT22;6543;48.836;10.092;2022-09-06T01:19:41;16.50;99.90
12957;DHT22;6543;48.836;10.092;2022-09-06T01:22:30;16.40;99.90
12957;DHT22;6543;48.836;10.092;2022-09-06T01:25:16;16.20;99.90
12957;DHT22;6543;48.836;10.092;2022-09-06T01:28:01;16.20;99.90
12957;DHT22;6543;48.836;10.092;2022-09-06T01:30:34;16.10;99.90
12957;DHT22;6543;48.836;10.092;2022-09-06T01:33:09;16.10;99.90
12957;DHT22;6543;48.836;10.092;2022-09-06T01:35:42;16.00;99.90
12957;DHT22;6543;48.836;10.092;2022-09-06T01:38:10;16.00;99.90
12957;DHT22;6543;48.836;10.092;2022-09-06T01:40:36;16.10;99.90
12957;DHT22;6543;48.836;10.092;2022-09-06T01:43:08;16.10;99.90
12957;DHT22;6543;48.836;10.092;2022-09-06T01:45:42;16.10;99.90
12957;DHT22;6543;48.836;10.092;2022-09-06T01:48:20;16.10;99.90
12957;DHT22;6543;48.836;10.092;2022-09-06T01:50:57;16.10;99.90
12957;DHT22;6543;48.836;10.092;2022-09-06T01:53:43;16.20;99.90
12957;DHT22;6543;48.836;10.092;2022-09-06T01:56:21;16.10;99.90
12957;DHT22;6543;48.836;10.092;2022-09-06T01:59:07;16.10;99.90
12957;DHT22;6543;48.836;10.092;2022-09-06T02:01:46;16.10;99.90
12957;DHT22;6543;48.836;10.092;2022-09-06T02:04:20;16.10;99.90
12957;DHT22;6543;48.836;10.092;2022-09-06T02:06:53;16.00;99.90
12957;DHT22;6543;48.836;10.092;2022-09-06T02:09:25;16.00;99.90
12957;DHT22;6543;48.836;10.092;2022-09-06T02:11:55;16.10;99.90
12957;DHT22;6543;48.836;10.092;2022-09-06T02:14:27;16.10;99.90
12957;DHT22;6543;48.836;10.092;2022-09-06T02:16:57;16.00;99.90
12957;DHT22;6543;48.836;10.092;2022-09-06T02:19:29;16.00;99.90
12957;DHT22;6543;48.836;10.092;2022-09-06T02:21:57;15.90;99.90
12957;DHT22;6543;48.836;10.092;2022-09-06T02:24:29;16.00;99.90
12957;DHT22;6543;48.836;10.092;2022-09-06T02:26:57;16.00;99.90
12957;DHT22;6543;48.836;10.092;2022-09-06T02:29:25;16.00;99.90
12957;DHT22;6543;48.836;10.092;2022-09-06T02:31:56;16.00;99.90
12957;DHT22;6543;48.836;10.092;2022-09-06T02:34:24;15.80;99.90
12957;DHT22;6543;48.836;10.092;2022-09-06T02:36:52;15.90;99.90
12957;DHT22;6543;48.836;10.092;2022-09-06T02:39:20;15.80;99.90
12957;DHT22;6543;48.836;10.092;2022-09-06T02:41:47;15.70;99.90
12957;DHT22;6543;48.836;10.092;2022-09-06T02:44:14;15.80;99.90
12957;DHT22;6543;48.836;10.092;2022-09-06T02:46:42;15.80;99.90
12957;DHT22;6543;48.836;10.092;2022-09-06T02:49:09;15.80;99.90
12957;DHT22;6543;48.836;10.092;2022-09-06T02:51:37;15.80;99.90
12957;DHT22;6543;48.836;10.092;2022-09-06T02:54:04;15.70;99.90
12957;DHT22;6543;48.836;10.092;2022-09-06T02:56:32;15.80;99.90
12957;DHT22;6543;48.836;10.092;2022-09-06T02:59:01;15.90;99.90
12957;DHT22;6543;48.836;10.092;2022-09-06T03:01:28;15.80;99.90
12957;DHT22;6543;48.836;10.092;2022-09-06T03:03:56;15.80;99.90
12957;DHT22;6543;48.836;10.092;2022-09-06T03:06:23;15.90;99.90
12957;DHT22;6543;48.836;10.092;2022-09-06T03:08:50;15.80;99.90
12957;DHT22;6543;48.836;10.092;2022-09-06T03:11:17;15.80;99.90
12957;DHT22;6543;48.836;10.092;2022-09-06T03:13:44;15.70;99.90
12957;DHT22;6543;48.836;10.092;2022-09-06T03:16:11;15.70;99.90
12957;DHT22;6543;48.836;10.092;2022-09-06T03:18:38;15.80;99.90
12957;DHT22;6543;48.836;10.092;2022-09-06T03:21:06;15.80;99.90
12957;DHT22;6543;48.836;10.092;2022-09-06T03:23:33;15.90;99.90
12957;DHT22;6543;48.836;10.092;2022-09-06T03:26:00;15.80;99.90
12957;DHT22;6543;48.836;10.092;2022-09-06T03:28:27;15.70;99.90
12957;DHT22;6543;48.836;10.092;2022-09-06T03:30:53;15.70;99.90
12957;DHT22;6543;48.836;10.092;2022-09-06T03:33:20;15.70;99.90
12957;DHT22;6543;48.836;10.092;2022-09-06T03:35:49;15.80;99.90
12957;DHT22;6543;48.836;10.092;2022-09-06T03:38:18;15.80;99.90
12957;DHT22;6543;48.836;10.092;2022-09-06T03:40:45;15.80;99.90
12957;DHT22;6543;48.836;10.092;2022-09-06T03:43:13;15.90;99.90
12957;DHT22;6543;48.836;10.092;2022-09-06T03:45:44;15.80;99.90
12957;DHT22;6543;48.836;10.092;2022-09-06T03:48:11;15.90;99.90
12957;DHT22;6543;48.836;10.092;2022-09-06T03:50:39;15.80;99.90
12957;DHT22;6543;48.836;10.092;2022-09-06T03:53:08;15.80;99.90
12957;DHT22;6543;48.836;10.092;2022-09-06T03:55:37;15.80;99.90
12957;DHT22;6543;48.836;10.092;2022-09-06T03:58:04;15.80;99.90
12957;DHT22;6543;48.836;10.092;2022-09-06T04:00:30;15.90;99.90
12957;DHT22;6543;48.836;10.092;2022-09-06T04:02:58;16.00;99.90
12957;DHT22;6543;48.836;10.092;2022-09-06T04:05:25;16.20;99.90
12957;DHT22;6543;48.836;10.092;2022-09-06T04:07:52;16.30;99.90
12957;DHT22;6543;48.836;10.092;2022-09-06T04:10:18;16.20;99.90
12957;DHT22;6543;48.836;10.092;2022-09-06T04:12:47;16.20;99.90
12957;DHT22;6543;48.836;10.092;2022-09-06T04:15:14;16.30;99.90
12957;DHT22;6543;48.836;10.092;2022-09-06T04:17:42;16.30;99.90
12957;DHT22;6543;48.836;10.092;2022-09-06T04:20:10;16.40;99.90
12957;DHT22;6543;48.836;10.092;2022-09-06T04:22:37;16.40;99.90
12957;DHT22;6543;48.836;10.092;2022-09-06T04:25:05;16.40;99.90
12957;DHT22;6543;48.836;10.092;2022-09-06T04:27:32;16.40;99.90
12957;DHT22;6543;48.836;10.092;2022-09-06T04:30:00;16.50;99.90
12957;DHT22;6543;48.836;10.092;2022-09-06T04:32:27;16.40;99.90
12957;DHT22;6543;48.836;10.092;2022-09-06T04:34:54;16.30;99.90
12957;DHT22;6543;48.836;10.092;2022-09-06T04:37:21;16.30;99.90
12957;DHT22;6543;48.836;10.092;2022-09-06T04:39:48;16.20;99.90
12957;DHT22;6543;48.836;10.092;2022-09-06T04:42:15;16.20;99.90
12957;DHT22;6543;48.836;10.092;2022-09-06T04:44:42;16.30;99.90
12957;DHT22;6543;48.836;10.092;2022-09-06T04:47:12;16.30;99.90
12957;DHT22;6543;48.836;10.092;2022-09-06T04:49:40;16.40;99.90
12957;DHT22;6543;48.836;10.092;2022-09-06T04:52:07;16.40;99.90
12957;DHT22;6543;48.836;10.092;2022-09-06T04:54:34;16.50;99.90
12957;DHT22;6543;48.836;10.092;2022-09-06T04:57:01;16.60;99.90
12957;DHT22;6543;48.836;10.092;2022-09-06T04:59:28;16.60;99.90
12957;DHT22;6543;48.836;10.092;2022-09-06T05:01:55;16.70;99.90
12957;DHT22;6543;48.836;10.092;2022-09-06T05:04:23;16.70;99.90
12957;DHT22;6543;48.836;10.092;2022-09-06T05:06:59;16.70;99.90
12957;DHT22;6543;48.836;10.092;2022-09-06T05:09:26;16.70;99.90
12957;DHT22;6543;48.836;10.092;2022-09-06T05:11:53;16.70;99.90
12957;DHT22;6543;48.836;10.092;2022-09-06T05:14:20;16.70;99.90
12957;DHT22;6543;48.836;10.092;2022-09-06T05:16:47;16.70;99.90
12957;DHT22;6543;48.836;10.092;2022-09-06T05:19:14;16.70;99.90
12957;DHT22;6543;48.836;10.092;2022-09-06T05:21:43;16.70;99.90
12957;DHT22;6543;48.836;10.092;2022-09-06T05:24:09;16.80;99.90
12957;DHT22;6543;48.836;10.092;2022-09-06T05:26:36;16.80;99.90
12957;DHT22;6543;48.836;10.092;2022-09-06T05:29:03;16.80;99.90
12957;DHT22;6543;48.836;10.092;2022-09-06T05:31:32;16.80;99.90
12957;DHT22;6543;48.836;10.092;2022-09-06T05:33:59;16.80;99.90
12957;DHT22;6543;48.836;10.092;2022-09-06T05:36:27;16.90;99.90
12957;DHT22;6543;48.836;10.092;2022-09-06T05:38:56;17.00;99.90
12957;DHT22;6543;48.836;10.092;2022-09-06T05:41:24;17.20;99.90
12957;DHT22;6543;48.836;10.092;2022-09-06T05:43:51;17.30;99.90
12957;DHT22;6543;48.836;10.092;2022-09-06T05:46:18;17.30;99.90
12957;DHT22;6543;48.836;10.092;2022-09-06T05:48:51;17.40;99.90
12957;DHT22;6543;48.836;10.092;2022-09-06T05:51:19;17.50;99.90
12957;DHT22;6543;48.836;10.092;2022-09-06T05:53:46;17.50;99.90
12957;DHT22;6543;48.836;10.092;2022-09-06T05:56:15;17.40;99.90
12957;DHT22;6543;48.836;10.092;2022-09-06T05:58:42;17.40;99.90
12957;DHT22;6543;48.836;10.092;2022-09-06T06:01:15;17.20;99.90
12957;DHT22;6543;48.836;10.092;2022-09-06T06:03:42;16.90;99.90
12957;DHT22;6543;48.836;10.092;2022-09-06T06:06:15;16.80;99.90
12957;DHT22;6543;48.836;10.092;2022-09-06T06:08:42;16.70;99.90
12957;DHT22;6543;48.836;10.092;2022-09-06T06:11:08;16.60;99.90
12957;DHT22;6543;48.836;10.092;2022-09-06T06:13:37;16.60;99.90
12957;DHT22;6543;48.836;10.092;2022-09-06T06:16:05;16.70;99.90
12957;DHT22;6543;48.836;10.092;2022-09-06T06:18:32;16.70;99.90
12957;DHT22;6543;48.836;10.092;2022-09-06T06:21:09;16.60;99.90
12957;DHT22;6543;48.836;10.092;2022-09-06T06:23:37;16.70;99.90
12957;DHT22;6543;48.836;10.092;2022-09-06T06:26:05;16.90;99.90
12957;DHT22;6543;48.836;10.092;2022-09-06T06:28:32;16.90;99.90
12957;DHT22;6543;48.836;10.092;2022-09-06T06:31:01;17.00;99.90
12957;DHT22;6543;48.836;10.092;2022-09-06T06:33:28;17.10;99.90
12957;DHT22;6543;48.836;10.092;2022-09-06T06:35:56;17.20;99.90
12957;DHT22;6543;48.836;10.092;2022-09-06T06:38:28;17.40;99.90
12957;DHT22;6543;48.836;10.092;2022-09-06T06:40:55;17.40;99.90
12957;DHT22;6543;48.836;10.092;2022-09-06T06:43:22;17.50;99.90
12957;DHT22;6543;48.836;10.092;2022-09-06T06:45:49;17.50;99.90
12957;DHT22;6543;48.836;10.092;2022-09-06T06:48:17;17.60;99.90
12957;DHT22;6543;48.836;10.092;2022-09-06T06:50:44;17.60;99.90
12957;DHT22;6543;48.836;10.092;2022-09-06T06:53:11;17.60;99.90
12957;DHT22;6543;48.836;10.092;2022-09-06T06:55:38;17.70;99.90
12957;DHT22;6543;48.836;10.092;2022-09-06T06:58:05;17.70;99.90
12957;DHT22;6543;48.836;10.092;2022-09-06T07:00:32;17.80;99.90
12957;DHT22;6543;48.836;10.092;2022-09-06T07:02:59;17.90;99.90
12957;DHT22;6543;48.836;10.092;2022-09-06T07:05:27;17.90;99.90
12957;DHT22;6543;48.836;10.092;2022-09-06T07:07:54;18.00;99.90
12957;DHT22;6543;48.836;10.092;2022-09-06T07:10:20;18.10;99.90
12957;DHT22;6543;48.836;10.092;2022-09-06T07:12:47;18.20;99.90
12957;DHT22;6543;48.836;10.092;2022-09-06T07:15:15;18.30;99.90
12957;DHT22;6543;48.836;10.092;2022-09-06T07:17:42;18.10;99.90
12957;DHT22;6543;48.836;10.092;2022-09-06T07:20:09;18.10;99.90
12957;DHT22;6543;48.836;10.092;2022-09-06T07:22:38;18.20;99.90
12957;DHT22;6543;48.836;10.092;2022-09-06T07:25:06;18.20;99.90
12957;DHT22;6543;48.836;10.092;2022-09-06T07:27:33;18.40;99.90
12957;DHT22;6543;48.836;10.092;2022-09-06T07:30:01;18.40;99.90
12957;DHT22;6543;48.836;10.092;2022-09-06T07:32:28;18.40;99.90
12957;DHT22;6543;48.836;10.092;2022-09-06T07:34:55;18.20;99.90
12957;DHT22;6543;48.836;10.092;2022-09-06T07:37:22;18.30;99.90
12957;DHT22;6543;48.836;10.092;2022-09-06T07:39:50;18.40;99.90
12957;DHT22;6543;48.836;10.092;2022-09-06T07:42:18;18.30;99.90
12957;DHT22;6543;48.836;10.092;2022-09-06T07:44:45;18.30;99.90
12957;DHT22;6543;48.836;10.092;2022-09-06T07:47:12;18.40;99.90
12957;DHT22;6543;48.836;10.092;2022-09-06T07:49:40;18.40;99.90
12957;DHT22;6543;48.836;10.092;2022-09-06T07:52:07;18.40;99.90
12957;DHT22;6543;48.836;10.092;2022-09-06T07:54:33;18.40;99.90
12957;DHT22;6543;48.836;10.092;2022-09-06T07:57:02;18.50;99.90
12957;DHT22;6543;48.836;10.092;2022-09-06T07:59:29;18.60;99.90
12957;DHT22;6543;48.836;10.092;2022-09-06T08:01:56;18.70;99.90
12957;DHT22;6543;48.836;10.092;2022-09-06T08:04:23;18.70;99.90
12957;DHT22;6543;48.836;10.092;2022-09-06T08:06:50;18.80;99.90
12957;DHT22;6543;48.836;10.092;2022-09-06T08:09:18;18.90;99.90
12957;DHT22;6543;48.836;10.092;2022-09-06T08:11:45;19.00;99.90
12957;DHT22;6543;48.836;10.092;2022-09-06T08:14:13;19.10;99.90
12957;DHT22;6543;48.836;10.092;2022-09-06T08:16:40;19.30;99.90
12957;DHT22;6543;48.836;10.092;2022-09-06T08:19:07;19.40;99.90
12957;DHT22;6543;48.836;10.092;2022-09-06T08:21:35;19.50;99.90
12957;DHT22;6543;48.836;10.092;2022-09-06T08:24:04;19.60;99.90
12957;DHT22;6543;48.836;10.092;2022-09-06T08:26:32;19.70;99.90
12957;DHT22;6543;48.836;10.092;2022-09-06T08:29:01;19.90;99.90
12957;DHT22;6543;48.836;10.092;2022-09-06T08:31:33;20.10;99.90
12957;DHT22;6543;48.836;10.092;2022-09-06T08:34:00;20.30;99.90
12957;DHT22;6543;48.836;10.092;2022-09-06T08:36:28;20.40;99.90
12957;DHT22;6543;48.836;10.092;2022-09-06T08:38:56;20.80;99.90
12957;DHT22;6543;48.836;10.092;2022-09-06T08:41:25;20.80;99.90
12957;DHT22;6543;48.836;10.092;2022-09-06T08:43:54;21.00;99.90
12957;DHT22;6543;48.836;10.092;2022-09-06T08:46:28;21.00;99.90
12957;DHT22;6543;48.836;10.092;2022-09-06T08:48:58;21.10;99.90
12957;DHT22;6543;48.836;10.092;2022-09-06T08:51:45;21.20;99.90
12957;DHT22;6543;48.836;10.092;2022-09-06T08:54:20;21.10;99.90
12957;DHT22;6543;48.836;10.092;2022-09-06T08:57:02;21.00;99.90
12957;DHT22;6543;48.836;10.092;2022-09-06T08:59:35;21.20;99.90
12957;DHT22;6543;48.836;10.092;2022-09-06T09:02:09;21.20;99.90
12957;DHT22;6543;48.836;10.092;2022-09-06T09:04:42;21.10;99.90
12957;DHT22;6543;48.836;10.092;2022-09-06T09:07:35;21.30;99.90
12957;DHT22;6543;48.836;10.092;2022-09-06T09:10:08;21.60;99.90
12957;DHT22;6543;48.836;10.092;2022-09-06T09:12:40;21.90;99.90
12957;DHT22;6543;48.836;10.092;2022-09-06T09:15:12;22.00;99.90
12957;DHT22;6543;48.836;10.092;2022-09-06T09:17:40;22.10;99.90
12957;DHT22;6543;48.836;10.092;2022-09-06T09:20:09;22.20;99.90
12957;DHT22;6543;48.836;10.092;2022-09-06T09:22:37;22.50;99.90
12957;DHT22;6543;48.836;10.092;2022-09-06T09:25:06;22.60;99.90
12957;DHT22;6543;48.836;10.092;2022-09-06T09:27:35;22.90;99.90
12957;DHT22;6543;48.836;10.092;2022-09-06T09:30:05;23.10;99.90
12957;DHT22;6543;48.836;10.092;2022-09-06T09:32:34;23.30;99.90
12957;DHT22;6543;48.836;10.092;2022-09-06T09:35:18;23.00;99.90
12957;DHT22;6543;48.836;10.092;2022-09-06T09:37:45;23.10;99.90
12957;DHT22;6543;48.836;10.092;2022-09-06T09:40:14;23.10;99.90
12957;DHT22;6543;48.836;10.092;2022-09-06T09:42:42;23.40;99.90
12957;DHT22;6543;48.836;10.092;2022-09-06T09:45:23;21.50;99.90
12957;DHT22;6543;48.836;10.092;2022-09-06T09:47:50;23.40;99.90
12957;DHT22;6543;48.836;10.092;2022-09-06T09:50:29;23.50;99.90
12957;DHT22;6543;48.836;10.092;2022-09-06T09:53:06;23.80;99.90
12957;DHT22;6543;48.836;10.092;2022-09-06T09:55:35;24.10;99.90
12957;DHT22;6543;48.836;10.092;2022-09-06T09:58:03;24.30;99.90
12957;DHT22;6543;48.836;10.092;2022-09-06T10:00:32;24.40;99.90
12957;DHT22;6543;48.836;10.092;2022-09-06T10:03:00;24.50;99.90
12957;DHT22;6543;48.836;10.092;2022-09-06T10:05:38;24.50;99.90
12957;DHT22;6543;48.836;10.092;2022-09-06T10:08:09;24.60;99.90
12957;DHT22;6543;48.836;10.092;2022-09-06T10:10:39;24.60;99.90
12957;DHT22;6543;48.836;10.092;2022-09-06T10:13:08;24.60;99.90
12957;DHT22;6543;48.836;10.092;2022-09-06T10:15:39;24.60;99.90
12957;DHT22;6543;48.836;10.092;2022-09-06T10:18:14;24.50;99.90
12957;DHT22;6543;48.836;10.092;2022-09-06T10:20:49;24.30;99.90
12957;DHT22;6543;48.836;10.092;2022-09-06T10:23:24;24.20;99.90
12957;DHT22;6543;48.836;10.092;2022-09-06T10:26:00;24.20;99.90
12957;DHT22;6543;48.836;10.092;2022-09-06T10:28:30;24.20;99.90
12957;DHT22;6543;48.836;10.092;2022-09-06T10:37:15;24.50;99.90
12957;DHT22;6543;48.836;10.092;2022-09-06T10:39:48;24.50;99.90
12957;DHT22;6543;48.836;10.092;2022-09-06T10:42:25;24.50;99.90
12957;DHT22;6543;48.836;10.092;2022-09-06T10:45:05;24.80;99.90
12957;DHT22;6543;48.836;10.092;2022-09-06T10:47:49;24.90;99.90
12957;DHT22;6543;48.836;10.092;2022-09-06T10:50:21;24.90;99.90
12957;DHT22;6543;48.836;10.092;2022-09-06T10:52:51;25.00;99.90
12957;DHT22;6543;48.836;10.092;2022-09-06T10:55:19;25.10;99.90
12957;DHT22;6543;48.836;10.092;2022-09-06T10:57:50;25.20;99.90
12957;DHT22;6543;48.836;10.092;2022-09-06T11:00:19;25.30;99.90
12957;DHT22;6543;48.836;10.092;2022-09-06T11:02:50;25.20;99.90
12957;DHT22;6543;48.836;10.092;2022-09-06T11:05:23;25.20;99.90
12957;DHT22;6543;48.836;10.092;2022-09-06T11:07:56;25.20;99.90
12957;DHT22;6543;48.836;10.092;2022-09-06T11:10:28;25.10;99.90
12957;DHT22;6543;48.836;10.092;2022-09-06T11:13:00;25.20;99.90
12957;DHT22;6543;48.836;10.092;2022-09-06T11:15:33;25.40;99.90
12957;DHT22;6543;48.836;10.092;2022-09-06T11:18:06;25.40;99.90
12957;DHT22;6543;48.836;10.092;2022-09-06T11:20:39;25.70;99.90
12957;DHT22;6543;48.836;10.092;2022-09-06T11:23:37;25.90;99.90
12957;DHT22;6543;48.836;10.092;2022-09-06T11:29:03;25.00;99.90
12957;DHT22;6543;48.836;10.092;2022-09-06T11:31:33;25.30;99.90
12957;DHT22;6543;48.836;10.092;2022-09-06T11:34:03;25.50;99.90
12957;DHT22;6543;48.836;10.092;2022-09-06T11:36:34;25.70;99.90
12957;DHT22;6543;48.836;10.092;2022-09-06T11:39:05;26.20;99.90
12957;DHT22;6543;48.836;10.092;2022-09-06T11:41:35;26.60;99.90
12957;DHT22;6543;48.836;10.092;2022-09-06T11:44:05;26.70;99.90
12957;DHT22;6543;48.836;10.092;2022-09-06T11:46:58;26.80;99.90
12957;DHT22;6543;48.836;10.092;2022-09-06T11:49:36;27.00;99.90
12957;DHT22;6543;48.836;10.092;2022-09-06T11:55:15;27.70;99.90
12957;DHT22;6543;48.836;10.092;2022-09-06T11:57:44;27.60;99.90
12957;DHT22;6543;48.836;10.092;2022-09-06T12:00:19;27.30;99.90
12957;DHT22;6543;48.836;10.092;2022-09-06T12:02:48;27.10;99.90
12957;DHT22;6543;48.836;10.092;2022-09-06T12:05:24;26.70;99.90
12957;DHT22;6543;48.836;10.092;2022-09-06T12:11:00;26.70;99.90
12957;DHT22;6543;48.836;10.092;2022-09-06T12:13:46;27.20;99.90
12957;DHT22;6543;48.836;10.092;2022-09-06T12:16:15;27.30;99.90
12957;DHT22;6543;48.836;10.092;2022-09-06T12:18:59;27.20;99.90
12957;DHT22;6543;48.836;10.092;2022-09-06T12:21:45;27.60;99.90
12957;DHT22;6543;48.836;10.092;2022-09-06T12:24:52;27.50;99.90
12957;DHT22;6543;48.836;10.092;2022-09-06T12:27:21;27.20;99.90
12957;DHT22;6543;48.836;10.092;2022-09-06T12:29:54;27.40;99.90
12957;DHT22;6543;48.836;10.092;2022-09-06T12:32:26;27.30;99.90
12957;DHT22;6543;48.836;10.092;2022-09-06T12:34:55;27.50;99.90
12957;DHT22;6543;48.836;10.092;2022-09-06T12:37:31;27.20;99.90
12957;DHT22;6543;48.836;10.092;2022-09-06T12:39:59;27.30;99.90
12957;DHT22;6543;48.836;10.092;2022-09-06T12:42:29;27.00;99.90
12957;DHT22;6543;48.836;10.092;2022-09-06T12:44:56;26.80;99.90
12957;DHT22;6543;48.836;10.092;2022-09-06T12:47:27;26.70;99.90
12957;DHT22;6543;48.836;10.092;2022-09-06T12:50:11;26.80;99.90
12957;DHT22;6543;48.836;10.092;2022-09-06T12:52:47;27.00;99.90
12957;DHT22;6543;48.836;10.092;2022-09-06T12:55:21;26.90;99.90
12957;DHT22;6543;48.836;10.092;2022-09-06T12:57:52;26.70;99.90
12957;DHT22;6543;48.836;10.092;2022-09-06T13:00:20;26.60;99.90
12957;DHT22;6543;48.836;10.092;2022-09-06T13:02:55;26.70;99.90
12957;DHT22;6543;48.836;10.092;2022-09-06T13:05:23;26.80;99.90
12957;DHT22;6543;48.836;10.092;2022-09-06T13:07:53;26.50;99.90
12957;DHT22;6543;48.836;10.092;2022-09-06T13:10:23;28.10;99.90
12957;DHT22;6543;48.836;10.092;2022-09-06T13:12:54;26.70;99.90
12957;DHT22;6543;48.836;10.092;2022-09-06T13:15:23;26.90;99.90
12957;DHT22;6543;48.836;10.092;2022-09-06T13:17:51;27.10;99.90
12957;DHT22;6543;48.836;10.092;2022-09-06T13:20:24;27.20;99.90
12957;DHT22;6543;48.836;10.092;2022-09-06T13:22:52;27.40;99.90
12957;DHT22;6543;48.836;10.092;2022-09-06T13:25:24;27.60;99.90
12957;DHT22;6543;48.836;10.092;2022-09-06T13:27:54;27.80;99.90
12957;DHT22;6543;48.836;10.092;2022-09-06T13:30:32;27.60;99.90
12957;DHT22;6543;48.836;10.092;2022-09-06T13:33:00;27.70;99.90
12957;DHT22;6543;48.836;10.092;2022-09-06T13:35:29;27.70;99.90
12957;DHT22;6543;48.836;10.092;2022-09-06T13:38:29;27.80;99.90
12957;DHT22;6543;48.836;10.092;2022-09-06T13:40:56;27.80;99.90
12957;DHT22;6543;48.836;10.092;2022-09-06T13:43:26;27.50;99.90
12957;DHT22;6543;48.836;10.092;2022-09-06T13:46:04;27.40;99.90
12957;DHT22;6543;48.836;10.092;2022-09-06T13:48:31;27.30;99.90
12957;DHT22;6543;48.836;10.092;2022-09-06T13:50:58;27.40;99.90
12957;DHT22;6543;48.836;10.092;2022-09-06T13:53:26;27.30;99.90
12957;DHT22;6543;48.836;10.092;2022-09-06T13:55:53;26.70;99.90
12957;DHT22;6543;48.836;10.092;2022-09-06T13:58:20;27.10;99.90
12957;DHT22;6543;48.836;10.092;2022-09-06T14:00:49;27.10;99.90
12957;DHT22;6543;48.836;10.092;2022-09-06T14:03:20;27.20;99.90
12957;DHT22;6543;48.836;10.092;2022-09-06T14:05:49;27.40;99.90
12957;DHT22;6543;48.836;10.092;2022-09-06T14:08:16;27.50;99.90
12957;DHT22;6543;48.836;10.092;2022-09-06T14:10:43;27.50;99.90
12957;DHT22;6543;48.836;10.092;2022-09-06T14:13:13;27.30;99.90
12957;DHT22;6543;48.836;10.092;2022-09-06T14:15:40;27.20;99.90
12957;DHT22;6543;48.836;10.092;2022-09-06T14:18:09;27.40;99.90
12957;DHT22;6543;48.836;10.092;2022-09-06T14:20:35;27.70;99.90
12957;DHT22;6543;48.836;10.092;2022-09-06T14:23:03;27.80;99.90
12957;DHT22;6543;48.836;10.092;2022-09-06T14:25:30;27.60;99.90
12957;DHT22;6543;48.836;10.092;2022-09-06T14:28:00;27.50;99.90
12957;DHT22;6543;48.836;10.092;2022-09-06T14:30:27;27.30;99.90
12957;DHT22;6543;48.836;10.092;2022-09-06T14:32:54;27.30;99.90
12957;DHT22;6543;48.836;10.092;2022-09-06T14:35:22;27.50;99.90
12957;DHT22;6543;48.836;10.092;2022-09-06T14:37:50;27.60;99.90
12957;DHT22;6543;48.836;10.092;2022-09-06T14:40:17;27.50;99.90
12957;DHT22;6543;48.836;10.092;2022-09-06T14:42:44;27.40;99.90
12957;DHT22;6543;48.836;10.092;2022-09-06T14:45:11;27.10;99.90
12957;DHT22;6543;48.836;10.092;2022-09-06T14:47:38;27.40;99.90
12957;DHT22;6543;48.836;10.092;2022-09-06T14:50:06;27.60;99.90
12957;DHT22;6543;48.836;10.092;2022-09-06T14:52:34;27.60;99.90
12957;DHT22;6543;48.836;10.092;2022-09-06T14:55:01;27.20;99.90
12957;DHT22;6543;48.836;10.092;2022-09-06T14:57:28;27.70;99.90
12957;DHT22;6543;48.836;10.092;2022-09-06T14:59:55;27.70;99.90
12957;DHT22;6543;48.836;10.092;2022-09-06T15:02:22;27.70;99.90
12957;DHT22;6543;48.836;10.092;2022-09-06T15:04:50;27.60;99.90
12957;DHT22;6543;48.836;10.092;2022-09-06T15:07:17;27.70;99.90
12957;DHT22;6543;48.836;10.092;2022-09-06T15:09:46;27.60;99.90
12957;DHT22;6543;48.836;10.092;2022-09-06T15:12:15;27.50;99.90
12957;DHT22;6543;48.836;10.092;2022-09-06T15:14:42;27.40;99.90
12957;DHT22;6543;48.836;10.092;2022-09-06T15:17:09;27.30;99.90
12957;DHT22;6543;48.836;10.092;2022-09-06T15:19:36;27.40;99.90
12957;DHT22;6543;48.836;10.092;2022-09-06T15:22:04;27.30;99.90
12957;DHT22;6543;48.836;10.092;2022-09-06T15:24:32;27.30;99.90
12957;DHT22;6543;48.836;10.092;2022-09-06T15:27:00;27.30;99.90
12957;DHT22;6543;48.836;10.092;2022-09-06T15:29:28;27.40;99.90
12957;DHT22;6543;48.836;10.092;2022-09-06T15:31:55;27.30;99.90
12957;DHT22;6543;48.836;10.092;2022-09-06T15:34:24;27.40;99.90
12957;DHT22;6543;48.836;10.092;2022-09-06T15:36:52;27.20;99.90
12957;DHT22;6543;48.836;10.092;2022-09-06T15:39:19;27.10;99.90
12957;DHT22;6543;48.836;10.092;2022-09-06T15:41:48;27.10;99.90
12957;DHT22;6543;48.836;10.092;2022-09-06T15:44:18;26.80;99.90
12957;DHT22;6543;48.836;10.092;2022-09-06T15:46:47;26.80;99.90
12957;DHT22;6543;48.836;10.092;2022-09-06T15:49:16;26.80;99.90
12957;DHT22;6543;48.836;10.092;2022-09-06T15:51:44;26.50;99.90
12957;DHT22;6543;48.836;10.092;2022-09-06T15:54:12;26.40;99.90
12957;DHT22;6543;48.836;10.092;2022-09-06T15:56:40;26.30;99.90
12957;DHT22;6543;48.836;10.092;2022-09-06T15:59:07;26.30;99.90
12957;DHT22;6543;48.836;10.092;2022-09-06T16:01:36;26.20;99.90
12957;DHT22;6543;48.836;10.092;2022-09-06T16:04:04;26.20;99.90